createdAt,value
2019-03-17T00:00:37.428Z,86.50
2019-03-17T00:03:06.740Z,86.60
2019-03-17T00:05:37.382Z,86.90
2019-03-17T00:08:06.497Z,86.80
2019-03-17T00:10:35.435Z,87.10
2019-03-17T00:13:04.431Z,87.10
2019-03-17T00:15:33.500Z,86.90
2019-03-17T00:18:02.517Z,87.10
2019-03-17T00:20:31.462Z,87.20
2019-03-17T00:23:00.431Z,87.00
2019-03-17T00:25:29.375Z,86.90
2019-03-17T00:27:58.333Z,86.70
2019-03-17T00:30:27.345Z,86.80
2019-03-17T00:32:56.287Z,87.10
2019-03-17T00:35:25.320Z,87.20
2019-03-17T00:37:54.462Z,86.90
2019-03-17T00:40:25.397Z,86.90
2019-03-17T00:42:54.407Z,87.20
2019-03-17T00:45:23.408Z,86.90
2019-03-17T00:47:52.416Z,86.70
2019-03-17T00:50:21.372Z,86.50
2019-03-17T00:52:50.372Z,86.30
2019-03-17T00:55:19.359Z,86.80
2019-03-17T00:57:48.316Z,86.50
2019-03-17T01:00:17.315Z,86.60
2019-03-17T01:02:46.283Z,86.70
2019-03-17T01:05:15.214Z,86.80
2019-03-17T01:07:44.171Z,86.80
2019-03-17T01:10:13.238Z,86.50
2019-03-17T01:12:44.783Z,86.60
2019-03-17T01:15:12.969Z,86.60
2019-03-17T01:17:41.910Z,86.50
2019-03-17T01:20:11.305Z,85.90
2019-03-17T01:22:40.330Z,86.20
2019-03-17T01:25:09.817Z,86.00
2019-03-17T01:27:38.751Z,85.90
2019-03-17T01:30:14.038Z,86.20
2019-03-17T01:32:43.018Z,85.80
2019-03-17T01:35:12.071Z,85.80
2019-03-17T01:37:41.003Z,85.90
2019-03-17T01:40:10.723Z,85.80
2019-03-17T01:42:39.798Z,86.60
2019-03-17T01:45:09.949Z,85.90
2019-03-17T01:47:39.027Z,85.70
2019-03-17T01:50:09.720Z,85.50
2019-03-17T01:52:38.801Z,85.50
2019-03-17T01:55:08.516Z,85.10
2019-03-17T01:57:37.435Z,84.90
2019-03-17T02:00:12.169Z,84.70
2019-03-17T02:02:41.081Z,84.90
2019-03-17T02:05:21.574Z,85.10
2019-03-17T02:07:41.000Z,85.10
2019-03-17T02:10:10.142Z,85.10
2019-03-17T02:12:39.065Z,84.80
2019-03-17T02:15:08.547Z,85.10
2019-03-17T02:17:37.561Z,84.70
2019-03-17T02:20:09.047Z,84.90
2019-03-17T02:22:38.091Z,85.20
2019-03-17T02:25:07.174Z,85.10
2019-03-17T02:27:36.854Z,85.10
2019-03-17T02:30:08.860Z,85.40
2019-03-17T02:32:37.885Z,85.50
2019-03-17T02:35:06.895Z,85.60
2019-03-17T02:37:35.856Z,86.10
2019-03-17T02:40:07.114Z,86.40
2019-03-17T02:42:36.066Z,86.30
2019-03-17T02:45:07.888Z,86.60
2019-03-17T02:47:36.833Z,86.60
2019-03-17T02:50:07.009Z,86.70
2019-03-17T02:52:35.945Z,86.50
2019-03-17T02:55:06.910Z,87.10
2019-03-17T02:57:35.879Z,86.70
2019-03-17T03:00:07.693Z,86.60
2019-03-17T03:02:36.649Z,86.60
2019-03-17T03:05:07.319Z,86.50
2019-03-17T03:07:36.293Z,86.40
2019-03-17T03:10:06.030Z,86.40
2019-03-17T03:12:34.980Z,86.00
2019-03-17T03:15:05.564Z,85.80
2019-03-17T03:17:34.513Z,86.40
2019-03-17T03:20:04.902Z,86.30
2019-03-17T03:22:33.838Z,85.80
2019-03-17T03:25:03.004Z,86.00
2019-03-17T03:27:31.968Z,85.80
2019-03-17T03:30:00.945Z,86.10
2019-03-17T03:32:30.037Z,85.90
2019-03-17T03:34:59.026Z,86.10
2019-03-17T03:37:27.986Z,86.20
2019-03-17T03:39:56.958Z,85.90
2019-03-17T03:42:26.724Z,85.90
2019-03-17T03:44:55.670Z,86.10
2019-03-17T03:47:24.594Z,86.10
2019-03-17T03:49:57.003Z,86.40
2019-03-17T03:52:24.378Z,86.10
2019-03-17T03:54:53.345Z,86.20
2019-03-17T03:57:22.273Z,85.90
2019-03-17T03:59:51.356Z,86.10
2019-03-17T04:02:20.269Z,86.30
2019-03-17T04:04:49.225Z,86.40
2019-03-17T04:07:18.230Z,86.20
2019-03-17T04:09:47.172Z,86.20
2019-03-17T04:12:16.189Z,86.30
2019-03-17T04:14:45.144Z,86.10
2019-03-17T04:17:14.113Z,85.80
2019-03-17T04:19:43.062Z,85.90
2019-03-17T04:22:12.010Z,85.50
2019-03-17T04:24:41.000Z,85.50
2019-03-17T04:27:10.031Z,85.60
2019-03-17T04:29:38.961Z,85.10
2019-03-17T04:32:07.908Z,85.30
2019-03-17T04:34:36.831Z,85.20
2019-03-17T04:37:05.921Z,84.90
2019-03-17T04:39:34.852Z,84.70
2019-03-17T04:42:03.799Z,84.60
2019-03-17T04:44:32.743Z,84.70
2019-03-17T04:47:01.747Z,84.90
2019-03-17T04:49:30.662Z,84.80
2019-03-17T04:51:59.614Z,85.10
2019-03-17T04:54:28.531Z,85.20
2019-03-17T04:56:57.491Z,85.10
2019-03-17T04:59:26.441Z,85.20
2019-03-17T05:01:55.472Z,85.40
2019-03-17T05:04:24.394Z,85.50
2019-03-17T05:06:53.359Z,85.80
2019-03-17T05:09:22.269Z,85.70
2019-03-17T05:11:51.239Z,85.90
2019-03-17T05:14:20.326Z,85.70
2019-03-17T05:16:49.304Z,86.00
2019-03-17T05:19:18.249Z,85.90
2019-03-17T05:21:47.182Z,85.60
2019-03-17T05:24:16.150Z,85.60
2019-03-17T05:26:45.080Z,85.80
2019-03-17T05:29:14.043Z,85.50
2019-03-17T05:31:42.982Z,85.30
2019-03-17T05:34:11.954Z,85.40
2019-03-17T05:36:40.920Z,85.20
2019-03-17T05:39:09.902Z,85.30
2019-03-17T05:41:38.808Z,85.60
2019-03-17T05:44:07.759Z,85.20
2019-03-17T05:46:36.675Z,85.40
2019-03-17T05:49:05.623Z,85.50
2019-03-17T05:51:34.566Z,85.50
2019-03-17T05:54:03.507Z,85.20
2019-03-17T05:56:32.430Z,84.80
2019-03-17T05:59:01.467Z,85.10
2019-03-17T06:01:30.393Z,84.90
2019-03-17T06:03:59.379Z,85.00
2019-03-17T06:06:28.320Z,86.00
2019-03-17T06:08:57.283Z,87.00
2019-03-17T06:11:26.213Z,87.30
2019-03-17T06:13:55.226Z,88.40
2019-03-17T06:16:24.213Z,89.30
2019-03-17T06:18:53.146Z,89.00
2019-03-17T06:21:22.180Z,89.40
2019-03-17T06:23:51.115Z,89.20
2019-03-17T06:26:20.230Z,89.90
2019-03-17T06:28:49.164Z,89.80
2019-03-17T06:31:18.140Z,90.00
2019-03-17T06:33:47.078Z,89.70
2019-03-17T06:36:16.016Z,89.60
2019-03-17T06:38:44.955Z,89.20
2019-03-17T06:41:13.923Z,88.80
2019-03-17T06:43:42.855Z,88.60
2019-03-17T06:46:11.832Z,88.70
2019-03-17T06:48:40.774Z,88.80
2019-03-17T06:51:09.752Z,88.70
2019-03-17T06:53:38.692Z,88.70
2019-03-17T06:56:07.697Z,88.80
2019-03-17T06:58:36.615Z,89.40
2019-03-17T07:01:05.560Z,90.00
2019-03-17T07:03:34.551Z,90.30
2019-03-17T07:06:03.515Z,90.40
2019-03-17T07:08:32.541Z,91.10
2019-03-17T07:11:01.489Z,91.40
2019-03-17T07:13:30.466Z,91.90
2019-03-17T07:15:59.380Z,92.80
2019-03-17T07:18:28.339Z,92.80
2019-03-17T07:20:57.251Z,93.00
2019-03-17T07:23:26.299Z,93.10
2019-03-17T07:25:55.233Z,92.80
2019-03-17T07:28:24.203Z,93.10
2019-03-17T07:30:53.127Z,93.30
2019-03-17T07:33:22.082Z,93.20
2019-03-17T07:35:51.015Z,93.50
2019-03-17T07:38:19.962Z,93.40
2019-03-17T07:40:48.965Z,93.50
2019-03-17T07:43:17.930Z,93.40
2019-03-17T07:45:46.864Z,93.50
2019-03-17T07:48:15.838Z,93.60
2019-03-17T07:50:44.761Z,93.80
2019-03-17T07:53:13.735Z,94.10
2019-03-17T07:55:42.683Z,93.80
2019-03-17T07:58:11.643Z,93.70
2019-03-17T08:00:40.685Z,93.60
2019-03-17T08:03:09.620Z,93.50
2019-03-17T08:05:38.625Z,93.90
2019-03-17T08:08:09.665Z,94.00
2019-03-17T08:10:38.300Z,94.00
2019-03-17T08:13:07.244Z,94.00
2019-03-17T08:15:36.261Z,93.90
2019-03-17T08:18:05.275Z,94.10
2019-03-17T08:20:34.247Z,93.90
2019-03-17T08:23:03.188Z,94.00
2019-03-17T08:25:32.136Z,94.40
2019-03-17T08:28:01.137Z,94.50
2019-03-17T08:30:30.320Z,94.70
2019-03-17T08:32:59.229Z,94.90
2019-03-17T08:35:28.211Z,95.20
2019-03-17T08:37:57.145Z,95.10
2019-03-17T08:40:26.122Z,95.50
2019-03-17T08:42:55.120Z,95.50
2019-03-17T08:45:24.071Z,96.10
2019-03-17T08:47:58.205Z,96.30
2019-03-17T08:50:23.657Z,96.60
2019-03-17T08:52:52.577Z,97.20
2019-03-17T08:55:21.527Z,97.90
2019-03-17T08:57:50.456Z,97.10
2019-03-17T09:00:20.870Z,96.70
2019-03-17T09:02:50.553Z,97.40
2019-03-17T09:05:19.489Z,97.40
2019-03-17T09:07:48.455Z,97.50
2019-03-17T09:10:17.404Z,97.90
2019-03-17T09:12:46.359Z,97.20
2019-03-17T09:15:15.302Z,97.30
2019-03-17T09:17:44.353Z,95.80
2019-03-17T09:20:14.238Z,95.70
2019-03-17T09:22:43.352Z,94.20
2019-03-17T09:25:13.125Z,94.00
2019-03-17T09:27:42.075Z,93.60
2019-03-17T09:30:13.649Z,93.50
2019-03-17T09:32:42.791Z,94.20
2019-03-17T09:35:12.003Z,93.90
2019-03-17T09:37:41.086Z,93.70
2019-03-17T09:40:17.078Z,93.20
2019-03-17T09:42:46.125Z,93.70
2019-03-17T09:45:16.094Z,93.50
2019-03-17T09:47:45.135Z,93.00
2019-03-17T09:50:21.578Z,92.70
2019-03-17T09:52:50.545Z,92.80
2019-03-17T09:55:19.489Z,93.10
2019-03-17T09:57:48.613Z,92.50
2019-03-17T10:00:18.597Z,92.20
2019-03-17T10:02:47.559Z,91.70
2019-03-17T10:05:16.678Z,91.40
2019-03-17T10:07:45.682Z,91.20
2019-03-17T10:10:16.292Z,91.40
2019-03-17T10:12:45.290Z,91.40
2019-03-17T10:15:15.483Z,91.20
2019-03-17T10:17:44.402Z,91.70
2019-03-17T10:20:18.234Z,91.80
2019-03-17T10:22:47.278Z,91.10
2019-03-17T10:25:16.314Z,91.20
2019-03-17T10:27:45.370Z,90.90
2019-03-17T10:30:18.187Z,90.80
2019-03-17T10:32:47.230Z,91.40
2019-03-17T10:35:16.317Z,92.00
2019-03-17T10:37:45.268Z,90.80
2019-03-17T10:40:23.352Z,91.20
2019-03-17T10:42:52.277Z,90.10
2019-03-17T10:45:21.315Z,90.20
2019-03-17T10:47:50.258Z,88.20
2019-03-17T10:50:20.264Z,85.80
2019-03-17T10:52:49.267Z,85.00
2019-03-17T10:55:18.331Z,85.60
2019-03-17T10:57:47.429Z,88.20
2019-03-17T11:00:21.231Z,90.30
2019-03-17T11:02:50.357Z,90.40
2019-03-17T11:05:19.386Z,90.40
2019-03-17T11:07:48.370Z,90.00
2019-03-17T11:10:17.787Z,89.90
2019-03-17T11:12:46.792Z,90.10
2019-03-17T11:15:23.080Z,90.00
2019-03-17T11:17:52.071Z,89.30
2019-03-17T11:20:20.988Z,89.50
2019-03-17T11:22:49.966Z,90.00
2019-03-17T11:25:19.837Z,89.80
2019-03-17T11:27:48.948Z,89.30
2019-03-17T11:30:19.991Z,88.40
2019-03-17T11:32:49.049Z,89.50
2019-03-17T11:35:18.202Z,88.90
2019-03-17T11:37:47.234Z,88.40
2019-03-17T11:40:17.212Z,88.40
2019-03-17T11:42:49.324Z,89.70
2019-03-17T11:45:17.279Z,90.10
2019-03-17T11:47:46.387Z,89.60
2019-03-17T11:50:17.403Z,89.90
2019-03-17T11:52:46.422Z,90.90
2019-03-17T11:55:15.699Z,92.60
2019-03-17T11:57:44.791Z,94.90
2019-03-17T12:00:19.017Z,96.00
2019-03-17T12:02:47.966Z,96.50
2019-03-17T12:05:16.977Z,96.20
2019-03-17T12:07:45.936Z,96.20
2019-03-17T12:10:22.102Z,95.50
2019-03-17T12:12:51.161Z,96.00
2019-03-17T12:15:28.968Z,95.30
2019-03-17T12:17:58.031Z,95.50
2019-03-17T12:20:27.087Z,95.60
2019-03-17T12:22:56.348Z,95.70
2019-03-17T12:25:25.419Z,95.50
2019-03-17T12:27:54.453Z,95.20
2019-03-17T12:30:27.039Z,95.10
2019-03-17T12:32:56.224Z,94.40
2019-03-17T12:35:25.359Z,93.50
2019-03-17T12:37:54.300Z,92.60
2019-03-17T12:40:23.323Z,92.60
2019-03-17T12:42:52.404Z,90.40
2019-03-17T12:45:21.452Z,83.30
2019-03-17T12:47:50.471Z,71.80
2019-03-17T12:50:28.241Z,65.00
2019-03-17T12:52:57.180Z,62.50
2019-03-17T12:55:26.247Z,57.50
2019-03-17T12:57:55.253Z,54.30
2019-03-17T13:00:25.872Z,57.00
2019-03-17T13:02:54.904Z,63.10
2019-03-17T13:05:24.021Z,70.70
2019-03-17T13:07:53.028Z,72.70
2019-03-17T13:10:22.508Z,77.20
2019-03-17T13:12:51.524Z,79.80
2019-03-17T13:15:20.532Z,72.80
2019-03-17T13:17:49.541Z,73.50
2019-03-17T13:20:20.484Z,74.40
2019-03-17T13:22:49.456Z,67.00
2019-03-17T13:25:18.477Z,62.30
2019-03-17T13:27:47.587Z,69.60
2019-03-17T13:30:17.458Z,73.40
2019-03-17T13:32:46.486Z,80.20
2019-03-17T13:35:15.592Z,84.80
2019-03-17T13:37:44.631Z,84.90
2019-03-17T13:40:29.000Z,81.80
2019-03-17T13:42:49.395Z,79.10
2019-03-17T13:45:18.354Z,66.10
2019-03-17T13:47:47.415Z,58.30
2019-03-17T13:50:20.320Z,54.20
2019-03-17T13:52:49.388Z,50.50
2019-03-17T13:55:18.403Z,52.30
2019-03-17T13:57:53.142Z,48.20
2019-03-17T14:00:22.339Z,44.40
2019-03-17T14:02:51.377Z,44.60
2019-03-17T14:05:20.336Z,48.20
2019-03-17T14:07:49.303Z,50.10
2019-03-17T14:10:18.801Z,50.80
2019-03-17T14:12:47.771Z,49.70
2019-03-17T14:15:16.840Z,45.20
2019-03-17T14:17:45.814Z,49.70
2019-03-17T14:20:21.681Z,56.70
2019-03-17T14:22:50.719Z,59.40
2019-03-17T14:25:28.283Z,63.90
2019-03-17T14:27:57.365Z,66.10
2019-03-17T14:30:26.290Z,73.70
2019-03-17T14:32:55.393Z,78.50
2019-03-17T14:35:24.398Z,80.60
2019-03-17T14:37:53.331Z,83.60
2019-03-17T14:40:22.314Z,84.90
2019-03-17T14:42:51.509Z,86.60
2019-03-17T14:45:20.622Z,77.40
2019-03-17T14:47:49.552Z,68.50
2019-03-17T14:50:23.405Z,58.70
2019-03-17T14:52:52.497Z,53.50
2019-03-17T14:55:21.550Z,48.00
2019-03-17T14:57:50.490Z,46.00
2019-03-17T15:00:23.307Z,48.30
2019-03-17T15:02:53.167Z,54.40
2019-03-17T15:05:25.044Z,63.10
2019-03-17T15:07:52.901Z,70.70
2019-03-17T15:10:23.183Z,76.00
2019-03-17T15:12:52.182Z,78.10
2019-03-17T15:15:22.096Z,81.20
2019-03-17T15:17:51.098Z,81.80
2019-03-17T15:20:22.311Z,81.20
2019-03-17T15:22:51.234Z,81.80
2019-03-17T15:25:20.271Z,78.30
2019-03-17T15:27:49.338Z,72.70
2019-03-17T15:30:28.518Z,66.20
2019-03-17T15:32:57.589Z,62.10
2019-03-17T15:35:26.552Z,59.20
2019-03-17T15:37:55.570Z,58.10
2019-03-17T15:40:24.569Z,58.70
2019-03-17T15:42:53.623Z,57.30
2019-03-17T15:45:25.630Z,55.30
2019-03-17T15:47:54.666Z,55.80
2019-03-17T15:50:25.138Z,55.30
2019-03-17T15:52:54.270Z,55.40
2019-03-17T15:55:23.348Z,56.40
2019-03-17T15:57:52.382Z,56.20
2019-03-17T16:00:27.371Z,57.80
2019-03-17T16:02:56.470Z,61.30
2019-03-17T16:05:25.487Z,64.40
2019-03-17T16:07:54.447Z,65.00
2019-03-17T16:10:41.678Z,63.10
2019-03-17T16:13:10.821Z,62.40
2019-03-17T16:15:40.412Z,60.00
2019-03-17T16:18:09.632Z,59.50
2019-03-17T16:20:38.850Z,61.30
2019-03-17T16:23:07.898Z,63.40
2019-03-17T16:25:39.739Z,69.70
2019-03-17T16:28:08.861Z,73.50
2019-03-17T16:30:37.853Z,76.20
2019-03-17T16:33:06.970Z,79.40
2019-03-17T16:35:35.956Z,80.10
2019-03-17T16:38:05.001Z,81.30
2019-03-17T16:40:35.024Z,81.50
2019-03-17T16:43:05.339Z,81.70
2019-03-17T16:45:34.260Z,82.70
2019-03-17T16:48:03.328Z,84.40
2019-03-17T16:50:32.349Z,85.10
2019-03-17T16:53:01.304Z,84.20
2019-03-17T16:55:30.361Z,84.00
2019-03-17T16:57:59.289Z,82.30
2019-03-17T17:00:28.405Z,82.50
2019-03-17T17:02:57.330Z,82.20
2019-03-17T17:05:26.732Z,81.80
2019-03-17T17:07:55.834Z,82.70
2019-03-17T17:10:28.570Z,82.70
2019-03-17T17:12:57.785Z,82.70
2019-03-17T17:15:28.829Z,83.70
2019-03-17T17:17:58.218Z,83.20
2019-03-17T17:20:30.547Z,84.20
2019-03-17T17:22:59.514Z,84.20
2019-03-17T17:25:28.517Z,85.00
2019-03-17T17:27:57.516Z,85.80
2019-03-17T17:30:26.695Z,86.20
2019-03-17T17:32:55.758Z,86.30
2019-03-17T17:35:24.831Z,86.90
2019-03-17T17:37:53.914Z,87.10
2019-03-17T17:40:26.628Z,87.30
2019-03-17T17:42:55.691Z,87.70
2019-03-17T17:45:25.618Z,87.60
2019-03-17T17:47:54.687Z,87.90
2019-03-17T17:50:25.569Z,88.10
2019-03-17T17:52:54.538Z,88.60
2019-03-17T17:55:23.546Z,88.80
2019-03-17T17:57:53.215Z,88.60
2019-03-17T18:00:40.343Z,89.10
2019-03-17T18:03:09.260Z,89.60
2019-03-17T18:05:38.288Z,90.00
2019-03-17T18:08:07.417Z,90.10
2019-03-17T18:10:36.446Z,90.30
2019-03-17T18:13:05.499Z,90.60
2019-03-17T18:15:34.668Z,90.40
2019-03-17T18:18:03.656Z,90.50
2019-03-17T18:20:32.600Z,90.70
2019-03-17T18:23:01.576Z,90.80
2019-03-17T18:25:30.518Z,90.70
2019-03-17T18:27:59.583Z,90.70
2019-03-17T18:30:28.627Z,90.70
2019-03-17T18:32:57.678Z,90.60
2019-03-17T18:35:26.690Z,90.70
2019-03-17T18:37:55.721Z,90.70
2019-03-17T18:40:24.705Z,90.70
2019-03-17T18:42:53.825Z,90.90
2019-03-17T18:45:28.116Z,90.70
2019-03-17T18:47:57.735Z,90.80
2019-03-17T18:50:27.393Z,90.70
2019-03-17T18:52:56.428Z,90.60
2019-03-17T18:55:25.604Z,90.70
2019-03-17T18:57:54.590Z,90.50
2019-03-17T19:00:26.705Z,90.50
2019-03-17T19:02:55.689Z,90.40
2019-03-17T19:05:24.769Z,90.60
2019-03-17T19:07:53.776Z,90.60
2019-03-17T19:10:22.825Z,90.70
2019-03-17T19:12:51.787Z,90.70
2019-03-17T19:15:22.864Z,90.70
2019-03-17T19:17:51.941Z,90.70
2019-03-17T19:20:24.527Z,90.90
2019-03-17T19:22:53.507Z,91.10
2019-03-17T19:25:24.614Z,91.30
2019-03-17T19:27:53.748Z,91.40
2019-03-17T19:30:23.425Z,91.50
2019-03-17T19:32:52.429Z,91.60
2019-03-17T19:35:21.457Z,91.70
2019-03-17T19:37:50.499Z,91.40
2019-03-17T19:40:24.628Z,91.40
2019-03-17T19:42:59.020Z,91.20
2019-03-17T19:45:24.315Z,91.10
2019-03-17T19:47:53.238Z,91.10
2019-03-17T19:50:25.008Z,91.20
2019-03-17T19:52:53.949Z,91.20
2019-03-17T19:55:23.057Z,91.10
2019-03-17T19:57:52.053Z,91.00
2019-03-17T20:00:22.074Z,90.90
2019-03-17T20:02:51.096Z,90.80
2019-03-17T20:05:20.084Z,90.90
2019-03-17T20:07:49.091Z,91.00
2019-03-17T20:10:28.967Z,91.10
2019-03-17T20:13:10.444Z,91.20
2019-03-17T20:15:28.614Z,91.40
2019-03-17T20:17:57.702Z,91.80
2019-03-17T20:20:26.690Z,91.90
2019-03-17T20:22:55.662Z,92.20
2019-03-17T20:25:24.604Z,92.40
2019-03-17T20:27:53.634Z,92.50
2019-03-17T20:30:22.557Z,92.70
2019-03-17T20:32:51.533Z,92.70
2019-03-17T20:35:21.137Z,92.80
2019-03-17T20:37:50.079Z,92.70
2019-03-17T20:40:19.596Z,92.80
2019-03-17T20:42:48.568Z,92.80
2019-03-17T20:45:20.227Z,92.90
2019-03-17T20:47:48.267Z,92.90
2019-03-17T20:50:20.400Z,93.00
2019-03-17T20:52:49.348Z,93.30
2019-03-17T20:55:18.367Z,93.00
2019-03-17T20:57:47.311Z,92.80
2019-03-17T21:00:19.874Z,92.70
2019-03-17T21:02:48.866Z,92.60
2019-03-17T21:05:17.842Z,92.60
2019-03-17T21:07:46.881Z,92.60
2019-03-17T21:10:16.991Z,92.60
2019-03-17T21:12:46.103Z,92.80
2019-03-17T21:15:19.298Z,92.90
2019-03-17T21:17:48.321Z,93.10
2019-03-17T21:20:22.289Z,93.10
2019-03-17T21:22:51.287Z,93.60
2019-03-17T21:25:20.312Z,94.30
2019-03-17T21:27:49.314Z,95.00
2019-03-17T21:30:23.911Z,95.10
2019-03-17T21:32:52.915Z,95.30
2019-03-17T21:35:22.078Z,95.20
2019-03-17T21:37:51.016Z,95.30
2019-03-17T21:40:20.035Z,95.40
2019-03-17T21:42:49.406Z,95.30
2019-03-17T21:45:18.523Z,95.60
2019-03-17T21:47:47.455Z,96.00
2019-03-17T21:50:18.424Z,96.30
2019-03-17T21:52:47.522Z,96.80
2019-03-17T21:55:16.600Z,97.10
2019-03-17T21:57:45.698Z,96.90
2019-03-17T22:00:21.070Z,96.80
2019-03-17T22:02:50.013Z,97.00
2019-03-17T22:05:18.998Z,97.00
2019-03-17T22:07:50.836Z,97.00
2019-03-17T22:10:19.419Z,97.10
2019-03-17T22:12:48.457Z,97.10
2019-03-17T22:15:18.308Z,97.30
2019-03-17T22:17:47.346Z,97.20
2019-03-17T22:20:16.894Z,97.20
2019-03-17T22:22:46.098Z,97.30
2019-03-17T22:25:15.969Z,97.00
2019-03-17T22:27:44.999Z,97.40
2019-03-17T22:30:20.635Z,97.20
2019-03-17T22:32:49.564Z,97.10
2019-03-17T22:35:18.492Z,97.40
2019-03-17T22:37:47.535Z,97.10
2019-03-17T22:40:19.886Z,97.10
2019-03-17T22:42:48.841Z,97.00
2019-03-17T22:45:17.840Z,97.00
2019-03-17T22:47:46.876Z,97.00
2019-03-17T22:50:19.346Z,96.90
2019-03-17T22:52:48.671Z,96.90
2019-03-17T22:55:17.752Z,96.70
2019-03-17T22:57:46.761Z,96.50
2019-03-17T23:00:35.960Z,96.40
2019-03-17T23:03:05.781Z,96.30
2019-03-17T23:05:34.694Z,96.30
2019-03-17T23:08:03.756Z,95.70
2019-03-17T23:10:32.718Z,95.80
2019-03-17T23:13:01.664Z,95.70
2019-03-17T23:15:30.615Z,95.40
2019-03-17T23:17:59.680Z,95.30
2019-03-17T23:20:28.748Z,95.30
2019-03-17T23:22:57.707Z,95.30
2019-03-17T23:25:26.715Z,95.50
2019-03-17T23:27:56.057Z,95.60
2019-03-17T23:30:25.332Z,95.40
2019-03-17T23:32:54.255Z,95.50
2019-03-17T23:35:23.281Z,95.20
2019-03-17T23:37:52.188Z,95.20
2019-03-17T23:40:21.141Z,95.20
2019-03-17T23:42:50.058Z,95.20
2019-03-17T23:45:19.079Z,95.30
2019-03-17T23:47:47.999Z,95.40
2019-03-17T23:50:17.029Z,95.40
2019-03-17T23:52:45.937Z,95.50
2019-03-17T23:55:15.086Z,95.60
2019-03-17T23:57:44.076Z,95.70
